sensor_id;sensor_type;location;lat;lon;timestamp;P1;durP1;ratioP1;P2;durP2;ratioP2
41057;SDS011;27499;48.884;2.258;2022-08-03T00:00:26;9.25;;;8.65;;
41057;SDS011;27499;48.884;2.258;2022-08-03T00:02:53;9.25;;;8.75;;
41057;SDS011;27499;48.884;2.258;2022-08-03T00:05:20;9.02;;;8.23;;
41057;SDS011;27499;48.884;2.258;2022-08-03T00:07:47;9.85;;;8.95;;
41057;SDS011;27499;48.884;2.258;2022-08-03T00:10:14;8.73;;;8.23;;
41057;SDS011;27499;48.884;2.258;2022-08-03T00:12:42;9.68;;;8.90;;
41057;SDS011;27499;48.884;2.258;2022-08-03T00:15:09;9.60;;;8.98;;
41057;SDS011;27499;48.884;2.258;2022-08-03T00:17:42;10.25;;;9.50;;
41057;SDS011;27499;48.884;2.258;2022-08-03T00:20:19;9.05;;;8.45;;
41057;SDS011;27499;48.884;2.258;2022-08-03T00:22:47;10.00;;;9.50;;
41057;SDS011;27499;48.884;2.258;2022-08-03T00:25:14;10.07;;;9.27;;
41057;SDS011;27499;48.884;2.258;2022-08-03T00:27:41;11.93;;;11.13;;
41057;SDS011;27499;48.884;2.258;2022-08-03T00:30:09;11.95;;;11.25;;
41057;SDS011;27499;48.884;2.258;2022-08-03T00:32:36;10.38;;;9.68;;
41057;SDS011;27499;48.884;2.258;2022-08-03T00:35:10;9.98;;;9.48;;
41057;SDS011;27499;48.884;2.258;2022-08-03T00:37:57;11.75;;;11.05;;
41057;SDS011;27499;48.884;2.258;2022-08-03T00:40:25;11.82;;;11.13;;
41057;SDS011;27499;48.884;2.258;2022-08-03T00:43:15;10.52;;;9.95;;
41057;SDS011;27499;48.884;2.258;2022-08-03T00:45:39;10.50;;;9.80;;
41057;SDS011;27499;48.884;2.258;2022-08-03T00:48:08;9.48;;;8.98;;
41057;SDS011;27499;48.884;2.258;2022-08-03T00:50:57;9.73;;;9.13;;
41057;SDS011;27499;48.884;2.258;2022-08-03T00:53:24;10.43;;;9.73;;
41057;SDS011;27499;48.884;2.258;2022-08-03T00:55:52;11.07;;;10.38;;
41057;SDS011;27499;48.884;2.258;2022-08-03T00:58:19;11.07;;;10.45;;
41057;SDS011;27499;48.884;2.258;2022-08-03T01:00:46;10.30;;;9.70;;
41057;SDS011;27499;48.884;2.258;2022-08-03T01:03:13;10.13;;;9.63;;
41057;SDS011;27499;48.884;2.258;2022-08-03T01:11:11;9.63;;;8.75;;
41057;SDS011;27499;48.884;2.258;2022-08-03T01:14:23;10.10;;;9.40;;
41057;SDS011;27499;48.884;2.258;2022-08-03T01:16:48;8.75;;;8.25;;
41057;SDS011;27499;48.884;2.258;2022-08-03T01:27:57;6.60;;;6.20;;
41057;SDS011;27499;48.884;2.258;2022-08-03T01:30:36;8.68;;;7.75;;
41057;SDS011;27499;48.884;2.258;2022-08-03T01:33:14;8.35;;;7.68;;
41057;SDS011;27499;48.884;2.258;2022-08-03T01:35:46;7.38;;;6.80;;
41057;SDS011;27499;48.884;2.258;2022-08-03T01:38:31;7.60;;;7.00;;
41057;SDS011;27499;48.884;2.258;2022-08-03T01:41:02;7.85;;;7.35;;
41057;SDS011;27499;48.884;2.258;2022-08-03T01:43:32;7.72;;;7.22;;
41057;SDS011;27499;48.884;2.258;2022-08-03T01:46:22;7.90;;;7.45;;
41057;SDS011;27499;48.884;2.258;2022-08-03T01:48:51;8.18;;;7.75;;
41057;SDS011;27499;48.884;2.258;2022-08-03T01:51:19;8.40;;;7.95;;
41057;SDS011;27499;48.884;2.258;2022-08-03T01:53:48;8.10;;;7.63;;
41057;SDS011;27499;48.884;2.258;2022-08-03T01:56:17;8.85;;;8.25;;
41057;SDS011;27499;48.884;2.258;2022-08-03T01:58:45;8.23;;;7.72;;
41057;SDS011;27499;48.884;2.258;2022-08-03T02:01:14;9.60;;;8.95;;
41057;SDS011;27499;48.884;2.258;2022-08-03T02:03:43;9.07;;;8.48;;
41057;SDS011;27499;48.884;2.258;2022-08-03T02:06:26;9.63;;;9.13;;
41057;SDS011;27499;48.884;2.258;2022-08-03T02:09:16;10.50;;;9.90;;
41057;SDS011;27499;48.884;2.258;2022-08-03T02:11:45;9.80;;;9.18;;
41057;SDS011;27499;48.884;2.258;2022-08-03T02:14:13;9.68;;;9.05;;
41057;SDS011;27499;48.884;2.258;2022-08-03T02:16:41;9.65;;;8.95;;
41057;SDS011;27499;48.884;2.258;2022-08-03T02:19:10;10.32;;;9.52;;
41057;SDS011;27499;48.884;2.258;2022-08-03T02:21:38;9.32;;;8.77;;
41057;SDS011;27499;48.884;2.258;2022-08-03T02:24:26;10.07;;;9.43;;
41057;SDS011;27499;48.884;2.258;2022-08-03T02:26:54;10.00;;;9.50;;
41057;SDS011;27499;48.884;2.258;2022-08-03T02:29:23;10.05;;;9.30;;
41057;SDS011;27499;48.884;2.258;2022-08-03T02:32:05;9.88;;;9.38;;
41057;SDS011;27499;48.884;2.258;2022-08-03T02:34:39;10.65;;;9.10;;
41057;SDS011;27499;48.884;2.258;2022-08-03T02:37:09;10.15;;;9.55;;
41057;SDS011;27499;48.884;2.258;2022-08-03T02:39:38;10.65;;;10.05;;
41057;SDS011;27499;48.884;2.258;2022-08-03T02:42:08;10.18;;;9.63;;
41057;SDS011;27499;48.884;2.258;2022-08-03T02:44:37;10.75;;;10.02;;
41057;SDS011;27499;48.884;2.258;2022-08-03T02:47:09;11.82;;;11.23;;
41057;SDS011;27499;48.884;2.258;2022-08-03T02:49:37;13.00;;;11.73;;
41057;SDS011;27499;48.884;2.258;2022-08-03T02:52:17;12.02;;;11.23;;
41057;SDS011;27499;48.884;2.258;2022-08-03T02:54:47;11.95;;;11.25;;
41057;SDS011;27499;48.884;2.258;2022-08-03T02:57:16;12.57;;;11.55;;
41057;SDS011;27499;48.884;2.258;2022-08-03T02:59:45;12.13;;;11.52;;
41057;SDS011;27499;48.884;2.258;2022-08-03T03:02:13;11.93;;;11.23;;
41057;SDS011;27499;48.884;2.258;2022-08-03T03:04:43;13.25;;;12.25;;
41057;SDS011;27499;48.884;2.258;2022-08-03T03:07:30;12.63;;;11.77;;
41057;SDS011;27499;48.884;2.258;2022-08-03T03:10:18;11.90;;;11.30;;
41057;SDS011;27499;48.884;2.258;2022-08-03T03:12:49;12.65;;;11.82;;
41057;SDS011;27499;48.884;2.258;2022-08-03T03:15:17;14.05;;;13.07;;
41057;SDS011;27499;48.884;2.258;2022-08-03T03:17:44;12.77;;;12.10;;
41057;SDS011;27499;48.884;2.258;2022-08-03T03:20:13;14.30;;;13.63;;
41057;SDS011;27499;48.884;2.258;2022-08-03T03:22:55;13.05;;;12.07;;
41057;SDS011;27499;48.884;2.258;2022-08-03T03:25:24;13.27;;;12.48;;
41057;SDS011;27499;48.884;2.258;2022-08-03T03:27:52;12.30;;;11.43;;
41057;SDS011;27499;48.884;2.258;2022-08-03T03:30:19;13.48;;;12.63;;
41057;SDS011;27499;48.884;2.258;2022-08-03T03:32:46;14.13;;;12.93;;
41057;SDS011;27499;48.884;2.258;2022-08-03T03:35:14;12.82;;;12.05;;
41057;SDS011;27499;48.884;2.258;2022-08-03T03:37:41;13.65;;;13.00;;
41057;SDS011;27499;48.884;2.258;2022-08-03T03:40:09;13.00;;;12.10;;
41057;SDS011;27499;48.884;2.258;2022-08-03T03:42:36;12.73;;;12.13;;
41057;SDS011;27499;48.884;2.258;2022-08-03T03:45:06;11.40;;;10.63;;
41057;SDS011;27499;48.884;2.258;2022-08-03T03:47:34;13.95;;;12.70;;
41057;SDS011;27499;48.884;2.258;2022-08-03T03:50:04;13.68;;;12.70;;
41057;SDS011;27499;48.884;2.258;2022-08-03T03:52:32;11.43;;;10.82;;
41057;SDS011;27499;48.884;2.258;2022-08-03T03:54:59;12.25;;;11.65;;
41057;SDS011;27499;48.884;2.258;2022-08-03T03:57:27;13.70;;;12.98;;
41057;SDS011;27499;48.884;2.258;2022-08-03T03:59:54;13.45;;;12.55;;
41057;SDS011;27499;48.884;2.258;2022-08-03T04:02:21;11.65;;;10.95;;
41057;SDS011;27499;48.884;2.258;2022-08-03T04:04:48;12.18;;;11.48;;
41057;SDS011;27499;48.884;2.258;2022-08-03T04:07:40;13.48;;;12.82;;
41057;SDS011;27499;48.884;2.258;2022-08-03T04:10:38;13.30;;;12.45;;
41057;SDS011;27499;48.884;2.258;2022-08-03T04:13:30;13.48;;;12.68;;
41057;SDS011;27499;48.884;2.258;2022-08-03T04:15:59;12.73;;;12.13;;
41057;SDS011;27499;48.884;2.258;2022-08-03T04:18:28;13.55;;;12.85;;
41057;SDS011;27499;48.884;2.258;2022-08-03T04:20:58;13.65;;;12.95;;
41057;SDS011;27499;48.884;2.258;2022-08-03T04:23:30;11.43;;;10.75;;
41057;SDS011;27499;48.884;2.258;2022-08-03T04:26:01;12.20;;;11.30;;
41057;SDS011;27499;48.884;2.258;2022-08-03T04:28:28;11.15;;;10.55;;
41057;SDS011;27499;48.884;2.258;2022-08-03T04:30:58;14.20;;;13.20;;
41057;SDS011;27499;48.884;2.258;2022-08-03T04:33:26;13.60;;;12.70;;
41057;SDS011;27499;48.884;2.258;2022-08-03T04:35:58;12.32;;;11.70;;
41057;SDS011;27499;48.884;2.258;2022-08-03T04:38:30;13.00;;;12.15;;
41057;SDS011;27499;48.884;2.258;2022-08-03T04:41:01;12.95;;;12.25;;
41057;SDS011;27499;48.884;2.258;2022-08-03T04:43:30;14.07;;;13.27;;
41057;SDS011;27499;48.884;2.258;2022-08-03T04:45:59;13.30;;;12.50;;
41057;SDS011;27499;48.884;2.258;2022-08-03T04:48:26;14.40;;;13.60;;
41057;SDS011;27499;48.884;2.258;2022-08-03T04:50:54;16.50;;;15.40;;
41057;SDS011;27499;48.884;2.258;2022-08-03T04:53:21;14.27;;;13.57;;
41057;SDS011;27499;48.884;2.258;2022-08-03T04:55:48;13.95;;;13.25;;
41057;SDS011;27499;48.884;2.258;2022-08-03T04:58:15;15.65;;;14.85;;
41057;SDS011;27499;48.884;2.258;2022-08-03T05:00:42;14.82;;;14.02;;
41057;SDS011;27499;48.884;2.258;2022-08-03T05:03:11;14.95;;;14.05;;
41057;SDS011;27499;48.884;2.258;2022-08-03T05:05:50;14.38;;;13.57;;
41057;SDS011;27499;48.884;2.258;2022-08-03T05:08:35;14.73;;;13.55;;
41057;SDS011;27499;48.884;2.258;2022-08-03T05:11:13;14.63;;;13.93;;
41057;SDS011;27499;48.884;2.258;2022-08-03T05:13:40;16.08;;;15.20;;
41057;SDS011;27499;48.884;2.258;2022-08-03T05:16:07;16.30;;;15.40;;
41057;SDS011;27499;48.884;2.258;2022-08-03T05:18:34;15.40;;;14.50;;
41057;SDS011;27499;48.884;2.258;2022-08-03T05:21:01;15.10;;;14.27;;
41057;SDS011;27499;48.884;2.258;2022-08-03T05:23:29;17.95;;;16.85;;
41057;SDS011;27499;48.884;2.258;2022-08-03T05:25:56;16.15;;;15.25;;
41057;SDS011;27499;48.884;2.258;2022-08-03T05:28:23;15.48;;;14.57;;
41057;SDS011;27499;48.884;2.258;2022-08-03T05:30:50;12.98;;;12.23;;
41057;SDS011;27499;48.884;2.258;2022-08-03T05:33:17;14.75;;;13.60;;
41057;SDS011;27499;48.884;2.258;2022-08-03T05:35:43;14.75;;;14.05;;
41057;SDS011;27499;48.884;2.258;2022-08-03T05:38:29;15.43;;;14.32;;
41057;SDS011;27499;48.884;2.258;2022-08-03T05:41:00;13.77;;;12.80;;
41057;SDS011;27499;48.884;2.258;2022-08-03T05:43:49;13.43;;;12.60;;
41057;SDS011;27499;48.884;2.258;2022-08-03T05:46:19;14.77;;;13.85;;
41057;SDS011;27499;48.884;2.258;2022-08-03T05:48:47;12.52;;;11.32;;
41057;SDS011;27499;48.884;2.258;2022-08-03T05:51:14;13.15;;;12.18;;
41057;SDS011;27499;48.884;2.258;2022-08-03T05:53:41;14.48;;;13.52;;
41057;SDS011;27499;48.884;2.258;2022-08-03T05:56:09;12.20;;;11.25;;
41057;SDS011;27499;48.884;2.258;2022-08-03T05:58:44;10.65;;;9.95;;
41057;SDS011;27499;48.884;2.258;2022-08-03T06:01:13;10.70;;;9.93;;
41057;SDS011;27499;48.884;2.258;2022-08-03T06:03:42;11.57;;;10.77;;
41057;SDS011;27499;48.884;2.258;2022-08-03T06:06:09;9.50;;;9.00;;
41057;SDS011;27499;48.884;2.258;2022-08-03T06:08:37;10.05;;;9.10;;
41057;SDS011;27499;48.884;2.258;2022-08-03T06:11:05;9.70;;;8.68;;
41057;SDS011;27499;48.884;2.258;2022-08-03T06:13:32;13.55;;;12.43;;
41057;SDS011;27499;48.884;2.258;2022-08-03T06:15:59;10.65;;;10.00;;
41057;SDS011;27499;48.884;2.258;2022-08-03T06:18:26;8.65;;;7.75;;
41057;SDS011;27499;48.884;2.258;2022-08-03T06:20:53;8.80;;;8.18;;
41057;SDS011;27499;48.884;2.258;2022-08-03T06:23:20;8.98;;;8.18;;
41057;SDS011;27499;48.884;2.258;2022-08-03T06:26:07;8.23;;;7.68;;
41057;SDS011;27499;48.884;2.258;2022-08-03T06:28:38;17.73;;;8.15;;
41057;SDS011;27499;48.884;2.258;2022-08-03T06:31:17;9.30;;;8.38;;
41057;SDS011;27499;48.884;2.258;2022-08-03T06:33:44;9.48;;;8.70;;
41057;SDS011;27499;48.884;2.258;2022-08-03T06:36:31;9.93;;;9.18;;
41057;SDS011;27499;48.884;2.258;2022-08-03T06:38:58;10.45;;;7.80;;
41057;SDS011;27499;48.884;2.258;2022-08-03T06:41:26;9.20;;;8.38;;
41057;SDS011;27499;48.884;2.258;2022-08-03T06:43:53;9.20;;;7.80;;
41057;SDS011;27499;48.884;2.258;2022-08-03T06:46:29;10.25;;;9.23;;
41057;SDS011;27499;48.884;2.258;2022-08-03T06:48:56;9.82;;;8.93;;
41057;SDS011;27499;48.884;2.258;2022-08-03T06:51:23;9.50;;;8.60;;
41057;SDS011;27499;48.884;2.258;2022-08-03T06:54:10;9.50;;;8.70;;
41057;SDS011;27499;48.884;2.258;2022-08-03T06:56:37;8.80;;;7.75;;
41057;SDS011;27499;48.884;2.258;2022-08-03T06:59:04;10.00;;;9.13;;
41057;SDS011;27499;48.884;2.258;2022-08-03T07:01:31;10.88;;;8.93;;
41057;SDS011;27499;48.884;2.258;2022-08-03T07:03:58;10.05;;;9.07;;
41057;SDS011;27499;48.884;2.258;2022-08-03T07:06:26;9.32;;;8.48;;
41057;SDS011;27499;48.884;2.258;2022-08-03T07:08:53;8.77;;;7.95;;
41057;SDS011;27499;48.884;2.258;2022-08-03T07:11:24;9.10;;;8.20;;
41057;SDS011;27499;48.884;2.258;2022-08-03T07:13:52;9.52;;;8.02;;
41057;SDS011;27499;48.884;2.258;2022-08-03T07:16:19;7.97;;;7.38;;
41057;SDS011;27499;48.884;2.258;2022-08-03T07:18:45;11.43;;;8.43;;
41057;SDS011;27499;48.884;2.258;2022-08-03T07:21:13;9.48;;;7.60;;
41057;SDS011;27499;48.884;2.258;2022-08-03T07:23:41;8.40;;;7.13;;
41057;SDS011;27499;48.884;2.258;2022-08-03T07:26:08;8.20;;;7.60;;
41057;SDS011;27499;48.884;2.258;2022-08-03T07:28:35;7.72;;;7.03;;
41057;SDS011;27499;48.884;2.258;2022-08-03T07:31:02;9.32;;;8.48;;
41057;SDS011;27499;48.884;2.258;2022-08-03T07:33:29;8.10;;;7.30;;
41057;SDS011;27499;48.884;2.258;2022-08-03T07:35:56;7.65;;;7.20;;
41057;SDS011;27499;48.884;2.258;2022-08-03T07:38:23;8.68;;;8.07;;
41057;SDS011;27499;48.884;2.258;2022-08-03T07:40:50;7.85;;;7.43;;
41057;SDS011;27499;48.884;2.258;2022-08-03T07:43:18;9.32;;;8.43;;
41057;SDS011;27499;48.884;2.258;2022-08-03T07:45:45;9.65;;;8.75;;
41057;SDS011;27499;48.884;2.258;2022-08-03T07:48:12;10.00;;;9.02;;
41057;SDS011;27499;48.884;2.258;2022-08-03T07:50:39;10.73;;;9.70;;
41057;SDS011;27499;48.884;2.258;2022-08-03T07:53:06;13.20;;;11.40;;
41057;SDS011;27499;48.884;2.258;2022-08-03T07:55:33;10.05;;;8.77;;
41057;SDS011;27499;48.884;2.258;2022-08-03T07:58:07;11.30;;;10.38;;
41057;SDS011;27499;48.884;2.258;2022-08-03T08:00:47;9.63;;;8.88;;
41057;SDS011;27499;48.884;2.258;2022-08-03T08:03:16;10.18;;;9.45;;
41057;SDS011;27499;48.884;2.258;2022-08-03T08:05:43;10.35;;;8.80;;
41057;SDS011;27499;48.884;2.258;2022-08-03T08:08:10;10.93;;;10.02;;
41057;SDS011;27499;48.884;2.258;2022-08-03T08:10:37;9.88;;;8.93;;
41057;SDS011;27499;48.884;2.258;2022-08-03T08:13:04;8.60;;;8.10;;
41057;SDS011;27499;48.884;2.258;2022-08-03T08:15:31;9.75;;;8.70;;
41057;SDS011;27499;48.884;2.258;2022-08-03T08:17:58;8.77;;;7.93;;
41057;SDS011;27499;48.884;2.258;2022-08-03T08:20:29;10.07;;;9.38;;
41057;SDS011;27499;48.884;2.258;2022-08-03T08:23:00;8.45;;;6.47;;
41057;SDS011;27499;48.884;2.258;2022-08-03T08:25:50;7.03;;;6.35;;
41057;SDS011;27499;48.884;2.258;2022-08-03T08:28:20;7.75;;;7.05;;
41057;SDS011;27499;48.884;2.258;2022-08-03T08:30:58;10.20;;;9.20;;
41057;SDS011;27499;48.884;2.258;2022-08-03T08:33:25;9.80;;;8.27;;
41057;SDS011;27499;48.884;2.258;2022-08-03T08:36:07;9.05;;;8.30;;
41057;SDS011;27499;48.884;2.258;2022-08-03T08:38:40;8.55;;;7.72;;
41057;SDS011;27499;48.884;2.258;2022-08-03T08:41:10;8.82;;;8.23;;
41057;SDS011;27499;48.884;2.258;2022-08-03T08:43:37;9.63;;;8.82;;
41057;SDS011;27499;48.884;2.258;2022-08-03T08:46:05;10.48;;;9.45;;
41057;SDS011;27499;48.884;2.258;2022-08-03T08:48:34;11.07;;;10.10;;
41057;SDS011;27499;48.884;2.258;2022-08-03T08:51:05;11.63;;;10.73;;
41057;SDS011;27499;48.884;2.258;2022-08-03T08:53:35;12.75;;;11.75;;
41057;SDS011;27499;48.884;2.258;2022-08-03T08:56:03;15.80;;;14.60;;
41057;SDS011;27499;48.884;2.258;2022-08-03T08:58:34;15.55;;;14.75;;
41057;SDS011;27499;48.884;2.258;2022-08-03T09:01:04;16.63;;;15.57;;
41057;SDS011;27499;48.884;2.258;2022-08-03T09:03:32;18.38;;;17.38;;
41057;SDS011;27499;48.884;2.258;2022-08-03T09:05:59;17.20;;;16.00;;
41057;SDS011;27499;48.884;2.258;2022-08-03T09:08:28;15.75;;;14.75;;
41057;SDS011;27499;48.884;2.258;2022-08-03T09:10:57;18.65;;;17.58;;
41057;SDS011;27499;48.884;2.258;2022-08-03T09:13:24;19.92;;;19.02;;
41057;SDS011;27499;48.884;2.258;2022-08-03T09:18:42;17.48;;;16.48;;
41057;SDS011;27499;48.884;2.258;2022-08-03T09:21:14;16.73;;;15.88;;
41057;SDS011;27499;48.884;2.258;2022-08-03T09:24:01;14.68;;;13.75;;
41057;SDS011;27499;48.884;2.258;2022-08-03T09:26:33;13.57;;;12.65;;
41057;SDS011;27499;48.884;2.258;2022-08-03T09:29:06;14.23;;;13.23;;
41057;SDS011;27499;48.884;2.258;2022-08-03T09:31:42;12.45;;;11.65;;
41057;SDS011;27499;48.884;2.258;2022-08-03T09:34:13;13.15;;;12.25;;
41057;SDS011;27499;48.884;2.258;2022-08-03T09:36:42;12.68;;;11.98;;
41057;SDS011;27499;48.884;2.258;2022-08-03T09:39:12;13.77;;;12.98;;
41057;SDS011;27499;48.884;2.258;2022-08-03T09:41:45;14.02;;;12.90;;
41057;SDS011;27499;48.884;2.258;2022-08-03T09:44:14;13.38;;;12.50;;
41057;SDS011;27499;48.884;2.258;2022-08-03T09:46:54;12.90;;;12.20;;
41057;SDS011;27499;48.884;2.258;2022-08-03T09:49:22;11.07;;;10.45;;
41057;SDS011;27499;48.884;2.258;2022-08-03T09:51:50;10.55;;;9.88;;
41057;SDS011;27499;48.884;2.258;2022-08-03T09:54:38;10.20;;;9.45;;
41057;SDS011;27499;48.884;2.258;2022-08-03T09:57:05;11.23;;;10.50;;
41057;SDS011;27499;48.884;2.258;2022-08-03T09:59:33;9.95;;;9.25;;
41057;SDS011;27499;48.884;2.258;2022-08-03T10:02:04;10.32;;;9.73;;
41057;SDS011;27499;48.884;2.258;2022-08-03T10:04:31;10.05;;;9.35;;
41057;SDS011;27499;48.884;2.258;2022-08-03T10:07:05;9.80;;;9.13;;
41057;SDS011;27499;48.884;2.258;2022-08-03T10:09:35;8.98;;;8.38;;
41057;SDS011;27499;48.884;2.258;2022-08-03T10:12:05;8.63;;;8.02;;
41057;SDS011;27499;48.884;2.258;2022-08-03T10:14:38;9.15;;;8.55;;
41057;SDS011;27499;48.884;2.258;2022-08-03T10:17:08;10.05;;;9.52;;
41057;SDS011;27499;48.884;2.258;2022-08-03T10:19:35;11.32;;;10.73;;
41057;SDS011;27499;48.884;2.258;2022-08-03T10:22:12;12.05;;;11.05;;
41057;SDS011;27499;48.884;2.258;2022-08-03T10:24:52;14.93;;;14.05;;
41057;SDS011;27499;48.884;2.258;2022-08-03T10:27:25;15.90;;;14.93;;
41057;SDS011;27499;48.884;2.258;2022-08-03T10:29:58;13.68;;;12.85;;
41057;SDS011;27499;48.884;2.258;2022-08-03T10:35:11;15.77;;;14.95;;
41057;SDS011;27499;48.884;2.258;2022-08-03T10:37:59;19.30;;;17.88;;
41057;SDS011;27499;48.884;2.258;2022-08-03T10:40:29;16.75;;;15.85;;
41057;SDS011;27499;48.884;2.258;2022-08-03T10:43:18;17.42;;;16.25;;
41057;SDS011;27499;48.884;2.258;2022-08-03T10:46:06;18.05;;;16.95;;
41057;SDS011;27499;48.884;2.258;2022-08-03T10:48:34;17.95;;;17.15;;
41057;SDS011;27499;48.884;2.258;2022-08-03T10:51:02;19.20;;;18.30;;
41057;SDS011;27499;48.884;2.258;2022-08-03T10:53:33;19.23;;;18.13;;
41057;SDS011;27499;48.884;2.258;2022-08-03T10:56:04;18.15;;;17.25;;
41057;SDS011;27499;48.884;2.258;2022-08-03T10:59:10;18.98;;;17.98;;
41057;SDS011;27499;48.884;2.258;2022-08-03T11:01:52;19.60;;;18.60;;
41057;SDS011;27499;48.884;2.258;2022-08-03T11:04:26;20.02;;;19.08;;
41057;SDS011;27499;48.884;2.258;2022-08-03T11:09:50;19.48;;;18.55;;
41057;SDS011;27499;48.884;2.258;2022-08-03T11:12:31;18.30;;;17.20;;
41057;SDS011;27499;48.884;2.258;2022-08-03T11:15:00;18.83;;;17.75;;
41057;SDS011;27499;48.884;2.258;2022-08-03T11:17:29;18.30;;;17.38;;
41057;SDS011;27499;48.884;2.258;2022-08-03T11:19:58;18.92;;;18.02;;
41057;SDS011;27499;48.884;2.258;2022-08-03T11:22:25;16.02;;;15.02;;
41057;SDS011;27499;48.884;2.258;2022-08-03T11:25:19;13.25;;;12.45;;
41057;SDS011;27499;48.884;2.258;2022-08-03T11:28:25;15.90;;;15.00;;
41057;SDS011;27499;48.884;2.258;2022-08-03T11:30:54;14.48;;;13.68;;
41057;SDS011;27499;48.884;2.258;2022-08-03T11:33:30;16.27;;;15.50;;
41057;SDS011;27499;48.884;2.258;2022-08-03T11:35:58;18.25;;;17.25;;
41057;SDS011;27499;48.884;2.258;2022-08-03T11:38:26;19.45;;;18.33;;
41057;SDS011;27499;48.884;2.258;2022-08-03T11:40:53;20.05;;;19.00;;
41057;SDS011;27499;48.884;2.258;2022-08-03T11:46:04;20.00;;;19.00;;
41057;SDS011;27499;48.884;2.258;2022-08-03T11:48:55;18.70;;;17.60;;
41057;SDS011;27499;48.884;2.258;2022-08-03T11:51:36;16.65;;;15.75;;
41057;SDS011;27499;48.884;2.258;2022-08-03T11:54:05;16.42;;;15.55;;
41057;SDS011;27499;48.884;2.258;2022-08-03T11:56:43;17.00;;;16.20;;
41057;SDS011;27499;48.884;2.258;2022-08-03T11:59:11;17.52;;;16.60;;
41057;SDS011;27499;48.884;2.258;2022-08-03T12:01:46;16.48;;;15.35;;
41057;SDS011;27499;48.884;2.258;2022-08-03T12:04:13;18.02;;;16.83;;
41057;SDS011;27499;48.884;2.258;2022-08-03T12:06:56;14.77;;;13.82;;
41057;SDS011;27499;48.884;2.258;2022-08-03T12:09:24;13.95;;;13.05;;
41057;SDS011;27499;48.884;2.258;2022-08-03T12:11:51;14.88;;;13.70;;
41057;SDS011;27499;48.884;2.258;2022-08-03T12:17:14;14.20;;;13.40;;
41057;SDS011;27499;48.884;2.258;2022-08-03T12:19:42;14.25;;;13.02;;
41057;SDS011;27499;48.884;2.258;2022-08-03T12:22:09;13.43;;;12.63;;
41057;SDS011;27499;48.884;2.258;2022-08-03T12:24:40;13.38;;;12.57;;
41057;SDS011;27499;48.884;2.258;2022-08-03T12:27:07;11.85;;;11.15;;
41057;SDS011;27499;48.884;2.258;2022-08-03T12:29:34;11.55;;;10.85;;
41057;SDS011;27499;48.884;2.258;2022-08-03T12:32:01;11.45;;;10.75;;
41057;SDS011;27499;48.884;2.258;2022-08-03T12:34:48;12.88;;;11.85;;
41057;SDS011;27499;48.884;2.258;2022-08-03T12:37:18;12.20;;;11.20;;
41057;SDS011;27499;48.884;2.258;2022-08-03T12:39:51;13.50;;;12.80;;
41057;SDS011;27499;48.884;2.258;2022-08-03T12:42:31;12.43;;;11.73;;
41057;SDS011;27499;48.884;2.258;2022-08-03T12:45:16;10.32;;;9.70;;
41057;SDS011;27499;48.884;2.258;2022-08-03T12:47:58;9.80;;;9.10;;
41057;SDS011;27499;48.884;2.258;2022-08-03T12:50:27;8.95;;;8.32;;
41057;SDS011;27499;48.884;2.258;2022-08-03T12:52:57;8.38;;;7.88;;
41057;SDS011;27499;48.884;2.258;2022-08-03T12:55:26;8.63;;;7.93;;
41057;SDS011;27499;48.884;2.258;2022-08-03T12:58:28;7.45;;;7.05;;
41057;SDS011;27499;48.884;2.258;2022-08-03T13:00:59;9.20;;;8.60;;
41057;SDS011;27499;48.884;2.258;2022-08-03T13:03:41;8.50;;;8.07;;
41057;SDS011;27499;48.884;2.258;2022-08-03T13:06:16;7.82;;;7.22;;
41057;SDS011;27499;48.884;2.258;2022-08-03T13:09:03;7.50;;;7.00;;
41057;SDS011;27499;48.884;2.258;2022-08-03T13:11:32;8.02;;;7.43;;
41057;SDS011;27499;48.884;2.258;2022-08-03T13:14:19;6.82;;;6.53;;
41057;SDS011;27499;48.884;2.258;2022-08-03T13:16:49;7.05;;;6.65;;
41057;SDS011;27499;48.884;2.258;2022-08-03T13:19:16;7.40;;;6.80;;
41057;SDS011;27499;48.884;2.258;2022-08-03T13:21:43;7.40;;;6.80;;
41057;SDS011;27499;48.884;2.258;2022-08-03T13:24:29;7.03;;;6.63;;
41057;SDS011;27499;48.884;2.258;2022-08-03T13:26:57;6.90;;;6.40;;
41057;SDS011;27499;48.884;2.258;2022-08-03T13:29:24;6.30;;;5.90;;
41057;SDS011;27499;48.884;2.258;2022-08-03T13:31:51;6.00;;;5.55;;
41057;SDS011;27499;48.884;2.258;2022-08-03T13:34:18;5.63;;;5.13;;
41057;SDS011;27499;48.884;2.258;2022-08-03T13:36:49;5.68;;;5.28;;
41057;SDS011;27499;48.884;2.258;2022-08-03T13:39:35;6.25;;;5.85;;
41057;SDS011;27499;48.884;2.258;2022-08-03T13:42:23;5.55;;;5.05;;
41057;SDS011;27499;48.884;2.258;2022-08-03T13:44:50;6.72;;;4.88;;
41057;SDS011;27499;48.884;2.258;2022-08-03T13:47:17;5.80;;;5.40;;
41057;SDS011;27499;48.884;2.258;2022-08-03T13:49:45;5.13;;;4.80;;
41057;SDS011;27499;48.884;2.258;2022-08-03T13:52:27;6.03;;;5.38;;
41057;SDS011;27499;48.884;2.258;2022-08-03T13:54:55;5.60;;;5.20;;
41057;SDS011;27499;48.884;2.258;2022-08-03T13:57:22;4.60;;;4.30;;
41057;SDS011;27499;48.884;2.258;2022-08-03T14:00:09;4.88;;;4.57;;
41057;SDS011;27499;48.884;2.258;2022-08-03T14:02:37;5.13;;;4.82;;
41057;SDS011;27499;48.884;2.258;2022-08-03T14:05:04;10.57;;;5.07;;
41057;SDS011;27499;48.884;2.258;2022-08-03T14:07:31;6.28;;;5.65;;
41057;SDS011;27499;48.884;2.258;2022-08-03T14:09:58;9.10;;;8.60;;
41057;SDS011;27499;48.884;2.258;2022-08-03T14:12:27;9.45;;;8.95;;
41057;SDS011;27499;48.884;2.258;2022-08-03T14:14:53;13.48;;;12.57;;
41057;SDS011;27499;48.884;2.258;2022-08-03T14:17:26;13.30;;;12.70;;
41057;SDS011;27499;48.884;2.258;2022-08-03T14:20:07;14.23;;;13.63;;
41057;SDS011;27499;48.884;2.258;2022-08-03T14:22:55;8.18;;;7.68;;
41057;SDS011;27499;48.884;2.258;2022-08-03T14:25:22;7.40;;;6.95;;
41057;SDS011;27499;48.884;2.258;2022-08-03T14:27:48;7.18;;;6.72;;
41057;SDS011;27499;48.884;2.258;2022-08-03T14:30:15;7.10;;;6.70;;
41057;SDS011;27499;48.884;2.258;2022-08-03T14:32:42;7.00;;;6.50;;
41057;SDS011;27499;48.884;2.258;2022-08-03T14:35:09;4.75;;;4.55;;
41057;SDS011;27499;48.884;2.258;2022-08-03T14:37:36;4.72;;;4.30;;
41057;SDS011;27499;48.884;2.258;2022-08-03T14:40:03;5.10;;;4.65;;
41057;SDS011;27499;48.884;2.258;2022-08-03T14:42:31;4.35;;;3.95;;
41057;SDS011;27499;48.884;2.258;2022-08-03T14:44:58;5.10;;;4.57;;
41057;SDS011;27499;48.884;2.258;2022-08-03T14:47:32;7.35;;;6.38;;
41057;SDS011;27499;48.884;2.258;2022-08-03T14:50:19;5.57;;;5.28;;
41057;SDS011;27499;48.884;2.258;2022-08-03T14:53:04;4.85;;;4.50;;
41057;SDS011;27499;48.884;2.258;2022-08-03T14:55:31;6.50;;;5.93;;
41057;SDS011;27499;48.884;2.258;2022-08-03T14:58:16;6.25;;;5.80;;
41057;SDS011;27499;48.884;2.258;2022-08-03T15:00:48;5.75;;;5.35;;
41057;SDS011;27499;48.884;2.258;2022-08-03T15:03:16;3.63;;;3.42;;
41057;SDS011;27499;48.884;2.258;2022-08-03T15:05:49;3.53;;;3.20;;
41057;SDS011;27499;48.884;2.258;2022-08-03T15:08:21;5.90;;;3.78;;
41057;SDS011;27499;48.884;2.258;2022-08-03T15:10:49;3.78;;;3.47;;
41057;SDS011;27499;48.884;2.258;2022-08-03T15:13:16;4.75;;;4.20;;
41057;SDS011;27499;48.884;2.258;2022-08-03T15:15:44;4.85;;;4.50;;
41057;SDS011;27499;48.884;2.258;2022-08-03T15:18:12;7.05;;;6.32;;
41057;SDS011;27499;48.884;2.258;2022-08-03T15:20:39;4.53;;;4.22;;
41057;SDS011;27499;48.884;2.258;2022-08-03T15:23:12;4.95;;;4.65;;
41057;SDS011;27499;48.884;2.258;2022-08-03T15:25:40;6.95;;;6.50;;
41057;SDS011;27499;48.884;2.258;2022-08-03T15:28:28;5.00;;;4.70;;